Aktualne dane pomiarowe

Uwaga, wersja testowa! Automatyczne pobieranie danych za pomocą narzędzi lub skryptów to umożliwiających jest zabronione.

Dane meteo z obszaru Polski uzyskane na podstawie depesz SYNOP pobieranych co godzinę z NWS. Najedź myszką na symbol przedstawiony w tabeli, aby uzyskać informacje co do jego znaczenia. Prosimy pamiętać, że to testowa wersja strony, która jeszcze nie jest ukończona. Stworzono również jest krótki FAQ dotyczący korzystania z tej podstrony Anomalie temperatury w chwili obecnej odniesione są do okresu referencyjnego 1951-2016. Okres ten będzie później zmieniony na 1981-2010. Kliknij ikonę aby pobrać plik CSV. Kliknij ikonę aby wygenerować mapę synoptyczną dla danego terminu.

Wybierz Datę:    

        

Kłodzko (12520)

Dane terminowe dla wybranej stacji. Kliknij datę, aby otrzymać dane z tego terminu dla wszystkich stacji.

TemperaturaZachmurzenieWiatrCiśnienieOpadyPogoda
 Data t td wb tx tn tg rh  Nt Nl Cl Cm Ch ws wd g1 g2 wx mslp ppp ch 24h 12h t ww ww w1 w2  
2019-06-19 23:00:00 17.5 15.5 16.1--- 8825.0wxwxwxwxwx0----1011.3 969.7 -0.3---------
2019-06-19 22:00:00 18.2 15.4 16.2--- 8445.0wx-wx3wx---1011.4 969.9 -0.1---------
2019-06-19 21:00:00 18.4 15.8 16.6--- 8540.0wxwxwxwx4wx-2241011.1 969.6 0.4---wx-w1w2--
2019-06-19 20:00:00 17.8 16.5 16.9--- 9225.0wxwxwxwxwx5wx-2251011.6 970.0 0.9---wx-w1w2--
2019-06-19 19:00:00 19.2 13.4 15.4--- 692.0wxwxwx10wx2122101011.4 970.0 1.0---wx-w1w2--
2019-06-19 18:00:00 22.7 18.5 19.8 26.9 17.3- 7725.0wxwxwxwxwx3wx--31010.0 969.2 -0.1- 4.012wx-w1w2--
2019-06-19 17:00:00 24.8 17.8 20.1--- 6525.0wxwxwxwxwx2wx--21009.6 969.1 -0.8---wx---
2019-06-19 16:00:00 25.6 16.4 19.6--- 5725.0wxwxwxwxwx2wx--21009.4 969.0 -1.0---wx---
2019-06-19 15:00:00 23.0 16.1 18.4--- 6520.0wxwxwxwxwx6wx---1010.1 969.3 -1.2---wx-w1w2--
2019-06-19 14:00:00 23.2 16.0 18.4--- 6425.0wxwxwxwxwx3wx--31010.7 969.9 -1.0---wx-w1w2--
2019-06-19 13:00:00 26.0 16.5 19.8--- 5640.0wxwxwxwxwx1wx--11010.4 970.0 -1.2---wx---
2019-06-19 12:00:00 26.3 17.4 20.4--- 5840.0wxwxwxwxwx4wx--41010.9 970.5 -1.2- 0.06------
2019-06-19 11:00:00 26.2 17.8 20.6--- 6040.0wxwxwxwxwx4wx--41011.3 970.9 -1.2---------
2019-06-19 10:00:00 24.9 16.1 19.1--- 5840.0wxwxwxwxwx4wx--41011.8 971.2 -1.4---------
2019-06-19 09:00:00 25.4 17.1 19.9--- 6035.0wxwxwxwx4wx--41012.2 971.7 -1.1---------
2019-06-19 08:00:00 22.7 17.6 19.2--- 7335.0wxwxwxwxwx1wx---1013.0 972.1 -1.1---------
2019-06-19 07:00:00 19.6 15.3 16.7--- 7630.0wxwxwxwxwx1wx--11014.0 972.6 -0.5---------
2019-06-19 06:00:00 17.3 14.0 15.1 23.1 10.7 10 8130.0wxwxwxwxwx1---11014.6 972.8 -0.4- 0.012----- 13.5
2019-06-19 05:00:00 14.5 13.2 13.6--- 9215.0wx-wxwx1wx--11015.4 973.2 -0.2---wx---
2019-06-19 04:00:00 12.4 12.2 12.2--- 9915.0wx-wxwx1wx--11015.6 973.1 -0.6---wx---
2019-06-19 03:00:00 11.1 10.6 10.7--- 9712.0wx-wxwx1wx---1015.9 973.2 -0.4---wx---
2019-06-19 02:00:00 13.1 12.2 12.4--- 9415.0wx-wxwx1wx--11015.8 973.4 -0.5---------
2019-06-19 01:00:00 13.3 12.8 12.9--- 9720.0wx-wx2wx--21016.1 973.7 -0.5---------
2019-06-19 00:00:00 13.4 12.9 13.0--- 9720.0wx-wx2wx--21016.0 973.6 -1.0- 0.06------
2019-06-18 23:00:00 13.9 12.9 13.2--- 9425.0wx-wx1wx--11016.2 973.9 -0.7---------
2019-06-18 22:00:00 14.3 13.2 13.5--- 9325.0wx-wx1wx---1016.5 974.2 -0.2---------
2019-06-18 21:00:00 15.6 14.0 14.5--- 9025.0wx-wx1wx--11016.7 974.6 0.2---------
2019-06-18 20:00:00 16.9 14.0 14.9--- 8325.0wxwxwxwx1wx--11016.5 974.6 0.1---------
2019-06-18 19:00:00 21.6 14.0 16.7--- 6240.0wxwxwxwx1wx--11015.6 974.4 -0.3---------
2019-06-18 18:00:00 23.1 13.8 17.2 24.1 15.5- 5650.0wxwxwxwx2wx--21015.4 974.4 -0.7- 0.012------
2019-06-18 17:00:00 23.6 13.7 17.4--- 5440.0wxwxwxwx2wx---1015.4 974.5 -1.2---------
2019-06-18 16:00:00 24.0 14.4 17.9--- 5540.0wxwxwxwx3wx--31015.6 974.7 -1.5---------
2019-06-18 15:00:00 23.7 13.8 17.5--- 5440.0wxwxwxwx3wx---1016.0 975.1 -1.6---------
2019-06-18 14:00:00 23.4 15.2 18.1--- 6040.0wxwxwxwxwx3wx--31016.7 975.7 -1.3---------
2019-06-18 13:00:00 23.2 15.0 17.9--- 6030.0wxwxwxwxwx3wx--31017.2 976.2 -1.3---------
2019-06-18 12:00:00 22.1 14.0 16.9--- 6035.0wxwxwxwx4wx--41017.9 976.7 -1.2- 0.06------
2019-06-18 11:00:00 21.9 13.5 16.6--- 5935.0wxwxwxwx4wx--41018.3 977.0 -1.0---------
2019-06-18 10:00:00 20.9 14.5 16.7--- 6730.0wxwxwxwx3wx--31018.9 977.5 -0.7---------
2019-06-18 09:00:00 19.9 14.7 16.4--- 7230.0wxwxwxwx4wx--41019.5 977.9 -0.6---------
2019-06-18 08:00:00 18.5 13.8 15.4--- 7430.0wxwxwxwxwx3wx--31019.8 978.0 -0.5---------
2019-06-18 07:00:00 17.5 13.0 14.5--- 7530.0wxwxwxwxwx3wx---1020.2 978.2 -0.1---------
2019-06-18 06:00:00 15.5 13.3 14.0 21.0 9.6 8 8735.0wx-wxwx1wx--11020.8 978.5 0.2- 0.012----- 13.9
2019-06-18 05:00:00 13.3 12.4 12.6--- 9435.0wx-wx0---01021.1 978.5 0.0---------
2019-06-18 04:00:00 10.8 10.3 10.4--- 9725.0wx-wx1wx--11021.3 978.3 -0.3---------
2019-06-18 03:00:00 10.1 9.8 9.8--- 9815.0wx-wx0---01021.4 978.3 -0.7---------
2019-06-18 02:00:00 11.5 11.0 11.1--- 9715.0wx-wx1wx---1021.4 978.5 -0.7---------
2019-06-18 01:00:00 11.4 10.8 10.9--- 9620.0wx-wx0----1021.5 978.6 -0.6---------
2019-06-18 00:00:00 11.2 10.7 10.8--- 9710.0wx-wx1wx--11021.9 979.0 0.0- 0.06------
2.4 ms

 

Print Friendly, PDF & Email